createdAt,value
2023-03-24T00:03:13.621Z,11.90
2023-03-24T00:08:05.463Z,12.53
2023-03-24T00:12:58.665Z,13.44
2023-03-24T00:17:51.202Z,12.26
2023-03-24T00:22:49.635Z,12.38
2023-03-24T00:27:41.925Z,12.05
2023-03-24T00:32:33.937Z,12.70
2023-03-24T00:37:25.801Z,13.44
2023-03-24T00:42:17.988Z,13.10
2023-03-24T00:47:10.085Z,13.41
2023-03-24T00:52:01.818Z,13.25
2023-03-24T00:56:55.972Z,12.43
2023-03-24T01:01:48.755Z,13.12
2023-03-24T01:06:41.214Z,12.99
2023-03-24T01:11:38.523Z,13.33
2023-03-24T01:16:31.196Z,12.94
2023-03-24T01:21:25.773Z,12.80
2023-03-24T01:26:17.488Z,13.33
2023-03-24T01:31:11.162Z,12.20
2023-03-24T01:36:04.090Z,13.19
2023-03-24T01:40:56.293Z,12.79
2023-03-24T01:45:51.186Z,13.39
2023-03-24T01:50:52.274Z,13.42
2023-03-24T01:55:47.017Z,12.39
2023-03-24T02:00:42.159Z,12.67
2023-03-24T02:05:54.843Z,13.44
2023-03-24T02:10:47.716Z,13.43
2023-03-24T02:16:01.940Z,13.34
2023-03-24T02:21:12.611Z,13.51
2023-03-24T02:26:20.700Z,13.52
2023-03-24T02:32:06.836Z,13.25
2023-03-24T02:36:58.559Z,13.50
2023-03-24T02:42:20.428Z,13.61
2023-03-24T02:47:35.421Z,13.45
2023-03-24T02:52:43.747Z,13.73
2023-03-24T02:57:39.966Z,10.54
2023-03-24T03:03:03.375Z,12.03
2023-03-24T03:07:58.498Z,13.40
2023-03-24T03:12:56.638Z,12.68
2023-03-24T03:17:59.145Z,13.57
2023-03-24T03:23:00.846Z,13.73
2023-03-24T03:27:57.448Z,13.96
2023-03-24T03:32:56.069Z,11.39
2023-03-24T03:38:03.427Z,13.93
2023-03-24T03:42:55.329Z,13.68
2023-03-24T03:47:48.832Z,13.49
2023-03-24T03:52:41.670Z,13.91
2023-03-24T03:57:35.952Z,13.31
2023-03-24T04:03:28.330Z,13.90
2023-03-24T04:08:37.511Z,13.58
2023-03-24T04:13:51.146Z,14.01
2023-03-24T04:19:32.231Z,14.03
2023-03-24T04:25:11.620Z,13.92
2023-03-24T04:30:16.965Z,14.12
2023-03-24T04:35:20.644Z,14.17
2023-03-24T04:40:33.164Z,12.92
2023-03-24T04:45:25.822Z,13.25
2023-03-24T04:50:39.989Z,14.19
2023-03-24T04:55:49.953Z,13.99
2023-03-24T05:00:52.804Z,12.78
2023-03-24T05:05:49.611Z,12.66
2023-03-24T05:10:41.652Z,11.85
2023-03-24T05:15:34.696Z,11.61
2023-03-24T05:20:42.880Z,12.37
2023-03-24T05:25:42.480Z,11.49
2023-03-24T05:30:34.678Z,11.06
2023-03-24T05:35:37.323Z,11.80
2023-03-24T05:40:29.049Z,11.32
2023-03-24T05:45:35.518Z,10.44
2023-03-24T05:50:28.812Z,11.69
2023-03-24T05:55:21.989Z,9.71
2023-03-24T06:00:20.726Z,10.32
2023-03-24T06:05:21.504Z,11.88
2023-03-24T06:10:18.252Z,11.45
2023-03-24T06:15:17.561Z,11.70
2023-03-24T06:20:15.893Z,11.54
2023-03-24T06:25:26.223Z,11.81
2023-03-24T06:30:38.930Z,11.65
2023-03-24T06:35:30.755Z,11.82
2023-03-24T06:40:28.210Z,11.57
2023-03-24T06:45:23.182Z,12.21
2023-03-24T06:50:16.015Z,11.83
2023-03-24T06:55:09.104Z,10.22
2023-03-24T07:00:01.377Z,11.83
2023-03-24T07:04:58.890Z,11.10
2023-03-24T07:10:05.293Z,12.14
2023-03-24T07:14:57.874Z,9.20
2023-03-24T07:19:49.822Z,11.61
2023-03-24T07:25:05.708Z,12.00
2023-03-24T07:30:09.187Z,11.86
2023-03-24T07:35:10.823Z,12.24
2023-03-24T07:40:07.094Z,12.59
2023-03-24T07:44:59.066Z,11.86
2023-03-24T07:49:51.207Z,12.53
2023-03-24T07:54:43.479Z,12.83
2023-03-24T07:59:50.129Z,12.73
2023-03-24T08:04:56.592Z,12.35
2023-03-24T08:10:18.042Z,13.94
2023-03-24T08:15:10.089Z,14.17
2023-03-24T08:20:06.135Z,17.40
2023-03-24T08:24:57.971Z,16.37
2023-03-24T08:29:49.681Z,19.78
2023-03-24T08:34:41.432Z,21.46
2023-03-24T08:39:35.988Z,21.81
2023-03-24T08:44:27.929Z,18.26
2023-03-24T08:49:19.716Z,17.73
2023-03-24T08:54:12.765Z,19.95
2023-03-24T08:59:05.888Z,19.61
2023-03-24T09:03:58.473Z,18.58
2023-03-24T09:08:50.545Z,16.35
2023-03-24T09:13:42.475Z,17.49
2023-03-24T09:18:34.478Z,17.42
2023-03-24T09:23:29.082Z,16.37
2023-03-24T09:28:21.707Z,17.55
2023-03-24T09:33:13.806Z,16.23
2023-03-24T09:38:05.937Z,15.81
2023-03-24T09:43:05.570Z,16.63
2023-03-24T09:48:13.887Z,17.41
2023-03-24T09:53:15.536Z,18.72
2023-03-24T09:58:09.105Z,19.33
2023-03-24T10:03:11.196Z,17.82
2023-03-24T10:08:12.242Z,19.99
2023-03-24T10:13:17.087Z,18.57
2023-03-24T10:18:26.060Z,15.94
2023-03-24T10:23:26.507Z,16.70
2023-03-24T10:28:28.005Z,17.15
2023-03-24T10:33:20.936Z,17.22
2023-03-24T10:38:20.745Z,15.99
2023-03-24T10:43:12.523Z,16.24
2023-03-24T10:48:04.983Z,16.04
2023-03-24T10:52:57.545Z,15.42
2023-03-24T10:57:59.356Z,14.37
2023-03-24T11:02:58.354Z,15.82
2023-03-24T11:07:51.931Z,16.53
2023-03-24T11:13:02.434Z,16.51
2023-03-24T11:17:56.855Z,16.64
2023-03-24T11:23:31.183Z,16.31
2023-03-24T11:28:27.657Z,16.75
2023-03-24T11:33:36.252Z,17.70
2023-03-24T11:38:35.344Z,18.60
2023-03-24T11:43:30.265Z,18.12
2023-03-24T11:48:52.551Z,16.50
2023-03-24T11:53:51.672Z,18.37
2023-03-24T11:58:47.774Z,18.60
2023-03-24T12:03:46.429Z,20.18
2023-03-24T12:08:49.213Z,18.55
2023-03-24T12:13:44.049Z,19.18
2023-03-24T12:19:13.881Z,19.21
2023-03-24T12:24:20.417Z,19.06
2023-03-24T12:29:32.395Z,19.67
2023-03-24T12:35:02.700Z,19.25
2023-03-24T12:40:36.328Z,18.70
2023-03-24T12:46:06.098Z,19.69
2023-03-24T12:51:23.082Z,19.61
2023-03-24T12:56:31.472Z,19.82
2023-03-24T13:01:46.045Z,19.12
2023-03-24T13:06:45.329Z,19.55
2023-03-24T13:12:12.652Z,19.00
2023-03-24T13:17:17.961Z,19.37
2023-03-24T13:22:18.113Z,19.61
2023-03-24T13:27:20.704Z,19.65
2023-03-24T13:32:22.486Z,19.52
2023-03-24T13:37:19.758Z,18.74
2023-03-24T13:42:31.867Z,18.62
2023-03-24T13:47:23.829Z,17.71
2023-03-24T13:52:29.046Z,17.47
2023-03-24T13:57:23.590Z,17.20
2023-03-24T14:02:21.782Z,18.91
2023-03-24T14:07:39.681Z,17.93
2023-03-24T14:12:32.841Z,17.24
2023-03-24T14:17:24.572Z,17.55
2023-03-24T14:22:30.492Z,17.43
2023-03-24T14:27:35.365Z,18.08
2023-03-24T14:32:27.271Z,16.74
2023-03-24T14:37:19.157Z,16.40
2023-03-24T14:42:32.970Z,17.33
2023-03-24T14:47:32.363Z,13.90
2023-03-24T14:52:30.164Z,15.09
2023-03-24T14:57:36.181Z,17.26
2023-03-24T15:02:34.567Z,16.87
2023-03-24T15:07:26.578Z,14.85
2023-03-24T15:12:19.801Z,16.03
2023-03-24T15:17:22.676Z,15.74
2023-03-24T15:22:14.508Z,15.50
2023-03-24T15:27:09.152Z,16.58
2023-03-24T15:32:01.180Z,15.08
2023-03-24T15:36:58.265Z,16.62
2023-03-24T15:41:52.360Z,14.59
2023-03-24T15:46:44.566Z,14.40
2023-03-24T15:51:50.467Z,15.48
2023-03-24T15:56:42.438Z,14.69
2023-03-24T16:01:38.839Z,15.86
2023-03-24T16:06:38.419Z,15.60
2023-03-24T16:11:30.216Z,13.59
2023-03-24T16:16:27.010Z,15.02
2023-03-24T16:21:27.844Z,15.54
2023-03-24T16:26:24.655Z,14.51
2023-03-24T16:31:49.129Z,15.01
2023-03-24T16:36:41.007Z,13.82
2023-03-24T16:41:32.974Z,12.52
2023-03-24T16:46:33.601Z,13.33
2023-03-24T16:51:25.626Z,13.15
2023-03-24T16:56:20.067Z,11.65
2023-03-24T17:01:34.727Z,12.20
2023-03-24T17:06:28.289Z,10.45
2023-03-24T17:11:32.529Z,13.18
2023-03-24T17:16:25.793Z,12.06
2023-03-24T17:21:20.201Z,11.59
2023-03-24T17:26:12.070Z,10.38
2023-03-24T17:31:04.437Z,10.92
2023-03-24T17:35:56.485Z,11.18
2023-03-24T17:40:48.598Z,9.45
2023-03-24T17:45:41.358Z,9.35
2023-03-24T17:50:33.711Z,7.78
2023-03-24T17:55:25.639Z,10.04
2023-03-24T18:00:17.884Z,10.06
2023-03-24T18:05:11.923Z,10.20
2023-03-24T18:10:04.652Z,9.84
2023-03-24T18:14:57.068Z,8.02
2023-03-24T18:19:50.425Z,8.96
2023-03-24T18:24:42.749Z,8.43
2023-03-24T18:29:34.554Z,7.20
2023-03-24T18:34:26.694Z,8.99
2023-03-24T18:39:18.557Z,9.14
2023-03-24T18:44:13.117Z,10.14
2023-03-24T18:49:05.198Z,9.09
2023-03-24T18:53:56.974Z,10.22
2023-03-24T18:58:51.091Z,9.10
2023-03-24T19:03:44.213Z,9.62
2023-03-24T19:08:40.920Z,8.76
2023-03-24T19:13:33.481Z,10.43
2023-03-24T19:18:25.764Z,8.36
2023-03-24T19:23:17.497Z,8.84
2023-03-24T19:28:09.876Z,9.86
2023-03-24T19:33:01.899Z,8.92
2023-03-24T19:37:53.977Z,10.35
2023-03-24T19:42:46.730Z,9.51
2023-03-24T19:47:38.813Z,8.86
2023-03-24T19:52:30.919Z,10.63
2023-03-24T19:57:22.739Z,9.46
2023-03-24T20:02:18.891Z,10.68
2023-03-24T20:07:11.734Z,10.13
2023-03-24T20:12:04.379Z,11.02
2023-03-24T20:16:56.195Z,9.39
2023-03-24T20:21:47.950Z,11.23
2023-03-24T20:26:39.756Z,10.58
2023-03-24T20:31:32.090Z,9.34
2023-03-24T20:36:23.926Z,10.92
2023-03-24T20:41:16.697Z,10.76
2023-03-24T20:46:09.914Z,9.86
2023-03-24T20:51:03.542Z,9.93
2023-03-24T20:56:06.558Z,10.68
2023-03-24T21:00:58.787Z,9.65
2023-03-24T21:05:51.481Z,10.44
2023-03-24T21:10:43.340Z,10.69
2023-03-24T21:15:35.894Z,8.77
2023-03-24T21:20:28.443Z,9.33
2023-03-24T21:25:31.448Z,9.10
2023-03-24T21:30:25.144Z,8.88
2023-03-24T21:35:17.982Z,9.99
2023-03-24T21:40:10.499Z,8.75
2023-03-24T21:45:03.591Z,9.00
2023-03-24T22:08:58.791Z,8.21
2023-03-24T22:13:51.000Z,8.49
2023-03-24T22:18:42.829Z,9.21
2023-03-24T22:23:37.891Z,8.85
2023-03-24T22:28:31.867Z,10.59
2023-03-24T22:33:24.276Z,8.50
2023-03-24T22:38:17.684Z,10.01
2023-03-24T22:43:10.416Z,8.23
2023-03-24T22:48:02.433Z,9.89
2023-03-24T22:52:54.431Z,10.04
2023-03-24T22:57:46.832Z,9.17
2023-03-24T23:02:39.146Z,10.32
2023-03-24T23:07:31.450Z,8.34
2023-03-24T23:12:25.049Z,9.93
2023-03-24T23:17:17.515Z,9.93
2023-03-24T23:22:10.281Z,8.59
2023-03-24T23:27:03.692Z,10.07
2023-03-24T23:31:55.645Z,8.18
2023-03-24T23:36:50.702Z,9.91
2023-03-24T23:41:42.520Z,10.32
2023-03-24T23:46:34.547Z,9.23
2023-03-24T23:51:26.448Z,8.68
2023-03-24T23:56:21.434Z,9.14
